sensor_id;sensor_type;location;lat;lon;timestamp;P1;durP1;ratioP1;P2;durP2;ratioP2
56806;SDS011;42687;42.524;12.052;2023-04-24T00:00:56;11.15;;;4.95;;
56806;SDS011;42687;42.524;12.052;2023-04-24T00:03:22;7.30;;;3.97;;
56806;SDS011;42687;42.524;12.052;2023-04-24T00:05:49;6.55;;;4.70;;
56806;SDS011;42687;42.524;12.052;2023-04-24T00:08:15;8.60;;;4.55;;
56806;SDS011;42687;42.524;12.052;2023-04-24T00:10:41;9.43;;;5.40;;
56806;SDS011;42687;42.524;12.052;2023-04-24T00:13:07;7.53;;;3.97;;
56806;SDS011;42687;42.524;12.052;2023-04-24T00:15:33;8.18;;;4.63;;
56806;SDS011;42687;42.524;12.052;2023-04-24T00:17:58;8.95;;;4.00;;
56806;SDS011;42687;42.524;12.052;2023-04-24T00:20:26;7.68;;;5.80;;
56806;SDS011;42687;42.524;12.052;2023-04-24T00:23:01;8.35;;;5.50;;
56806;SDS011;42687;42.524;12.052;2023-04-24T00:25:27;11.88;;;4.75;;
56806;SDS011;42687;42.524;12.052;2023-04-24T00:27:53;27.08;;;6.65;;
56806;SDS011;42687;42.524;12.052;2023-04-24T00:30:19;13.55;;;6.00;;
56806;SDS011;42687;42.524;12.052;2023-04-24T00:32:45;10.48;;;5.80;;
56806;SDS011;42687;42.524;12.052;2023-04-24T00:35:10;7.80;;;5.40;;
56806;SDS011;42687;42.524;12.052;2023-04-24T00:37:36;9.73;;;5.38;;
56806;SDS011;42687;42.524;12.052;2023-04-24T00:40:02;9.48;;;4.93;;
56806;SDS011;42687;42.524;12.052;2023-04-24T00:42:28;9.27;;;6.63;;
56806;SDS011;42687;42.524;12.052;2023-04-24T00:44:54;10.18;;;6.68;;
56806;SDS011;42687;42.524;12.052;2023-04-24T00:47:21;9.05;;;5.18;;
56806;SDS011;42687;42.524;12.052;2023-04-24T00:49:47;10.27;;;5.65;;
56806;SDS011;42687;42.524;12.052;2023-04-24T00:52:13;8.30;;;5.60;;
56806;SDS011;42687;42.524;12.052;2023-04-24T00:54:43;10.07;;;4.47;;
56806;SDS011;42687;42.524;12.052;2023-04-24T00:57:10;10.52;;;4.80;;
56806;SDS011;42687;42.524;12.052;2023-04-24T00:59:37;17.90;;;6.10;;
56806;SDS011;42687;42.524;12.052;2023-04-24T01:02:06;7.43;;;5.03;;
56806;SDS011;42687;42.524;12.052;2023-04-24T01:04:32;8.43;;;5.50;;
56806;SDS011;42687;42.524;12.052;2023-04-24T01:06:58;7.30;;;5.28;;
56806;SDS011;42687;42.524;12.052;2023-04-24T01:09:24;10.32;;;5.03;;
56806;SDS011;42687;42.524;12.052;2023-04-24T01:11:50;7.60;;;4.70;;
56806;SDS011;42687;42.524;12.052;2023-04-24T01:14:16;9.60;;;4.63;;
56806;SDS011;42687;42.524;12.052;2023-04-24T01:16:42;6.97;;;4.25;;
56806;SDS011;42687;42.524;12.052;2023-04-24T01:19:07;9.25;;;5.57;;
56806;SDS011;42687;42.524;12.052;2023-04-24T01:21:36;6.50;;;4.07;;
56806;SDS011;42687;42.524;12.052;2023-04-24T01:24:04;8.95;;;4.03;;
56806;SDS011;42687;42.524;12.052;2023-04-24T01:26:31;16.27;;;6.28;;
56806;SDS011;42687;42.524;12.052;2023-04-24T01:28:57;11.25;;;5.60;;
56806;SDS011;42687;42.524;12.052;2023-04-24T01:31:23;10.35;;;7.35;;
56806;SDS011;42687;42.524;12.052;2023-04-24T01:33:49;9.25;;;6.78;;
56806;SDS011;42687;42.524;12.052;2023-04-24T01:36:16;11.20;;;4.60;;
56806;SDS011;42687;42.524;12.052;2023-04-24T01:38:42;8.15;;;6.03;;
56806;SDS011;42687;42.524;12.052;2023-04-24T01:41:08;11.43;;;6.03;;
56806;SDS011;42687;42.524;12.052;2023-04-24T01:43:34;10.43;;;5.22;;
56806;SDS011;42687;42.524;12.052;2023-04-24T01:45:59;10.77;;;6.22;;
56806;SDS011;42687;42.524;12.052;2023-04-24T01:48:25;11.82;;;5.88;;
56806;SDS011;42687;42.524;12.052;2023-04-24T01:50:52;14.77;;;5.90;;
56806;SDS011;42687;42.524;12.052;2023-04-24T01:53:18;8.55;;;4.78;;
56806;SDS011;42687;42.524;12.052;2023-04-24T01:55:43;10.63;;;6.38;;
56806;SDS011;42687;42.524;12.052;2023-04-24T01:58:09;6.63;;;4.35;;
56806;SDS011;42687;42.524;12.052;2023-04-24T02:00:35;7.78;;;4.85;;
56806;SDS011;42687;42.524;12.052;2023-04-24T02:03:01;13.02;;;7.65;;
56806;SDS011;42687;42.524;12.052;2023-04-24T02:05:27;10.25;;;4.50;;
56806;SDS011;42687;42.524;12.052;2023-04-24T02:07:53;18.30;;;6.72;;
56806;SDS011;42687;42.524;12.052;2023-04-24T02:10:18;11.23;;;5.30;;
56806;SDS011;42687;42.524;12.052;2023-04-24T02:12:44;11.23;;;6.78;;
56806;SDS011;42687;42.524;12.052;2023-04-24T02:15:10;8.93;;;4.93;;
56806;SDS011;42687;42.524;12.052;2023-04-24T02:17:37;7.03;;;3.83;;
56806;SDS011;42687;42.524;12.052;2023-04-24T02:20:04;12.35;;;7.30;;
56806;SDS011;42687;42.524;12.052;2023-04-24T02:22:31;8.55;;;5.55;;
56806;SDS011;42687;42.524;12.052;2023-04-24T02:24:57;7.93;;;4.85;;
56806;SDS011;42687;42.524;12.052;2023-04-24T02:27:23;10.60;;;5.35;;
56806;SDS011;42687;42.524;12.052;2023-04-24T02:29:48;10.90;;;5.22;;
56806;SDS011;42687;42.524;12.052;2023-04-24T02:32:14;13.52;;;6.47;;
56806;SDS011;42687;42.524;12.052;2023-04-24T02:34:40;7.93;;;5.20;;
56806;SDS011;42687;42.524;12.052;2023-04-24T02:37:06;10.52;;;4.90;;
56806;SDS011;42687;42.524;12.052;2023-04-24T02:39:32;17.48;;;6.50;;
56806;SDS011;42687;42.524;12.052;2023-04-24T02:41:57;11.13;;;6.43;;
56806;SDS011;42687;42.524;12.052;2023-04-24T02:44:23;9.25;;;5.85;;
56806;SDS011;42687;42.524;12.052;2023-04-24T02:46:49;6.90;;;4.20;;
56806;SDS011;42687;42.524;12.052;2023-04-24T02:49:14;7.43;;;5.57;;
56806;SDS011;42687;42.524;12.052;2023-04-24T02:51:40;6.78;;;4.55;;
56806;SDS011;42687;42.524;12.052;2023-04-24T02:54:08;9.60;;;5.47;;
56806;SDS011;42687;42.524;12.052;2023-04-24T02:56:37;8.02;;;5.40;;
56806;SDS011;42687;42.524;12.052;2023-04-24T02:59:03;12.38;;;5.25;;
56806;SDS011;42687;42.524;12.052;2023-04-24T03:01:29;7.93;;;4.90;;
56806;SDS011;42687;42.524;12.052;2023-04-24T03:03:54;9.02;;;4.78;;
56806;SDS011;42687;42.524;12.052;2023-04-24T03:06:20;11.05;;;5.10;;
56806;SDS011;42687;42.524;12.052;2023-04-24T03:08:46;11.05;;;6.05;;
56806;SDS011;42687;42.524;12.052;2023-04-24T03:11:12;10.40;;;6.13;;
56806;SDS011;42687;42.524;12.052;2023-04-24T03:13:38;10.27;;;6.72;;
56806;SDS011;42687;42.524;12.052;2023-04-24T03:16:04;7.38;;;4.00;;
56806;SDS011;42687;42.524;12.052;2023-04-24T03:18:30;12.10;;;6.88;;
56806;SDS011;42687;42.524;12.052;2023-04-24T03:20:56;10.57;;;6.28;;
56806;SDS011;42687;42.524;12.052;2023-04-24T03:23:22;8.25;;;5.45;;
56806;SDS011;42687;42.524;12.052;2023-04-24T03:25:48;12.43;;;5.10;;
56806;SDS011;42687;42.524;12.052;2023-04-24T03:28:13;13.27;;;6.70;;
56806;SDS011;42687;42.524;12.052;2023-04-24T03:30:39;9.25;;;5.10;;
56806;SDS011;42687;42.524;12.052;2023-04-24T03:33:05;11.00;;;7.18;;
56806;SDS011;42687;42.524;12.052;2023-04-24T03:35:31;21.83;;;6.13;;
56806;SDS011;42687;42.524;12.052;2023-04-24T03:37:57;8.27;;;5.28;;
56806;SDS011;42687;42.524;12.052;2023-04-24T03:40:23;9.55;;;7.03;;
56806;SDS011;42687;42.524;12.052;2023-04-24T03:42:48;13.23;;;6.43;;
56806;SDS011;42687;42.524;12.052;2023-04-24T03:45:14;10.57;;;5.90;;
56806;SDS011;42687;42.524;12.052;2023-04-24T03:47:40;10.45;;;5.82;;
56806;SDS011;42687;42.524;12.052;2023-04-24T03:50:05;10.82;;;7.25;;
56806;SDS011;42687;42.524;12.052;2023-04-24T03:52:32;10.70;;;5.57;;
56806;SDS011;42687;42.524;12.052;2023-04-24T03:54:57;10.27;;;5.50;;
56806;SDS011;42687;42.524;12.052;2023-04-24T03:57:23;13.20;;;6.72;;
56806;SDS011;42687;42.524;12.052;2023-04-24T03:59:49;11.15;;;6.25;;
56806;SDS011;42687;42.524;12.052;2023-04-24T04:02:14;7.40;;;5.13;;
56806;SDS011;42687;42.524;12.052;2023-04-24T04:04:40;12.52;;;5.95;;
56806;SDS011;42687;42.524;12.052;2023-04-24T04:07:06;12.57;;;6.97;;
56806;SDS011;42687;42.524;12.052;2023-04-24T04:09:32;14.65;;;5.97;;
56806;SDS011;42687;42.524;12.052;2023-04-24T04:11:59;10.23;;;4.55;;
56806;SDS011;42687;42.524;12.052;2023-04-24T04:14:26;8.88;;;5.35;;
56806;SDS011;42687;42.524;12.052;2023-04-24T04:16:52;8.55;;;5.45;;
56806;SDS011;42687;42.524;12.052;2023-04-24T04:19:18;8.25;;;4.75;;
56806;SDS011;42687;42.524;12.052;2023-04-24T04:21:44;12.32;;;6.38;;
56806;SDS011;42687;42.524;12.052;2023-04-24T04:24:11;10.95;;;5.90;;
56806;SDS011;42687;42.524;12.052;2023-04-24T04:26:37;9.45;;;5.72;;
56806;SDS011;42687;42.524;12.052;2023-04-24T04:29:03;9.60;;;6.35;;
56806;SDS011;42687;42.524;12.052;2023-04-24T04:31:29;11.23;;;5.55;;
56806;SDS011;42687;42.524;12.052;2023-04-24T04:33:55;8.23;;;5.15;;
56806;SDS011;42687;42.524;12.052;2023-04-24T04:36:21;5.03;;;3.95;;
56806;SDS011;42687;42.524;12.052;2023-04-24T04:38:49;5.63;;;3.90;;
56806;SDS011;42687;42.524;12.052;2023-04-24T04:41:14;9.40;;;4.97;;
56806;SDS011;42687;42.524;12.052;2023-04-24T04:43:41;11.25;;;7.30;;
56806;SDS011;42687;42.524;12.052;2023-04-24T04:46:07;10.13;;;7.20;;
56806;SDS011;42687;42.524;12.052;2023-04-24T04:48:35;11.27;;;7.65;;
56806;SDS011;42687;42.524;12.052;2023-04-24T04:51:01;13.15;;;7.53;;
56806;SDS011;42687;42.524;12.052;2023-04-24T04:53:27;16.85;;;8.38;;
56806;SDS011;42687;42.524;12.052;2023-04-24T04:55:53;11.95;;;7.63;;
56806;SDS011;42687;42.524;12.052;2023-04-24T04:58:18;11.38;;;6.15;;
56806;SDS011;42687;42.524;12.052;2023-04-24T05:00:44;22.75;;;8.43;;
56806;SDS011;42687;42.524;12.052;2023-04-24T05:03:11;11.88;;;6.57;;
56806;SDS011;42687;42.524;12.052;2023-04-24T05:05:37;10.27;;;7.10;;
56806;SDS011;42687;42.524;12.052;2023-04-24T05:08:06;13.23;;;7.70;;
56806;SDS011;42687;42.524;12.052;2023-04-24T05:10:33;15.60;;;8.38;;
56806;SDS011;42687;42.524;12.052;2023-04-24T05:12:59;17.92;;;7.80;;
56806;SDS011;42687;42.524;12.052;2023-04-24T05:15:25;16.27;;;7.03;;
56806;SDS011;42687;42.524;12.052;2023-04-24T05:17:51;14.45;;;7.90;;
56806;SDS011;42687;42.524;12.052;2023-04-24T05:20:17;10.68;;;5.78;;
56806;SDS011;42687;42.524;12.052;2023-04-24T05:22:42;14.25;;;6.82;;
56806;SDS011;42687;42.524;12.052;2023-04-24T05:25:08;14.10;;;6.28;;
56806;SDS011;42687;42.524;12.052;2023-04-24T05:27:34;9.95;;;5.60;;
56806;SDS011;42687;42.524;12.052;2023-04-24T05:30:00;11.70;;;6.43;;
56806;SDS011;42687;42.524;12.052;2023-04-24T05:32:26;16.25;;;8.00;;
56806;SDS011;42687;42.524;12.052;2023-04-24T05:34:52;12.52;;;7.30;;
56806;SDS011;42687;42.524;12.052;2023-04-24T05:37:18;14.70;;;6.70;;
56806;SDS011;42687;42.524;12.052;2023-04-24T05:39:43;20.90;;;8.57;;
56806;SDS011;42687;42.524;12.052;2023-04-24T05:42:09;8.35;;;5.40;;
56806;SDS011;42687;42.524;12.052;2023-04-24T05:44:35;11.25;;;5.88;;
56806;SDS011;42687;42.524;12.052;2023-04-24T05:47:01;9.75;;;6.63;;
56806;SDS011;42687;42.524;12.052;2023-04-24T05:49:26;10.13;;;6.00;;
56806;SDS011;42687;42.524;12.052;2023-04-24T05:51:52;13.63;;;6.30;;
56806;SDS011;42687;42.524;12.052;2023-04-24T05:54:18;11.57;;;6.38;;
56806;SDS011;42687;42.524;12.052;2023-04-24T05:56:44;8.32;;;4.78;;
56806;SDS011;42687;42.524;12.052;2023-04-24T05:59:10;9.10;;;6.93;;
56806;SDS011;42687;42.524;12.052;2023-04-24T06:01:35;10.85;;;6.30;;
56806;SDS011;42687;42.524;12.052;2023-04-24T06:04:03;13.35;;;6.60;;
56806;SDS011;42687;42.524;12.052;2023-04-24T06:06:29;13.48;;;6.95;;
56806;SDS011;42687;42.524;12.052;2023-04-24T06:08:55;14.88;;;6.63;;
56806;SDS011;42687;42.524;12.052;2023-04-24T06:11:22;11.77;;;7.30;;
56806;SDS011;42687;42.524;12.052;2023-04-24T06:13:50;13.63;;;8.23;;
56806;SDS011;42687;42.524;12.052;2023-04-24T06:16:17;17.02;;;6.68;;
56806;SDS011;42687;42.524;12.052;2023-04-24T06:18:43;12.55;;;6.15;;
56806;SDS011;42687;42.524;12.052;2023-04-24T06:21:08;11.82;;;6.57;;
56806;SDS011;42687;42.524;12.052;2023-04-24T06:23:34;9.88;;;6.28;;
56806;SDS011;42687;42.524;12.052;2023-04-24T06:26:00;7.50;;;5.50;;
56806;SDS011;42687;42.524;12.052;2023-04-24T06:28:26;12.35;;;6.85;;
56806;SDS011;42687;42.524;12.052;2023-04-24T06:30:51;12.77;;;8.27;;
56806;SDS011;42687;42.524;12.052;2023-04-24T06:33:17;9.05;;;5.43;;
56806;SDS011;42687;42.524;12.052;2023-04-24T06:35:43;9.60;;;6.57;;
56806;SDS011;42687;42.524;12.052;2023-04-24T06:38:09;10.38;;;7.15;;
56806;SDS011;42687;42.524;12.052;2023-04-24T06:40:34;12.50;;;7.03;;
56806;SDS011;42687;42.524;12.052;2023-04-24T06:43:00;14.80;;;6.68;;
56806;SDS011;42687;42.524;12.052;2023-04-24T06:45:28;13.25;;;6.53;;
56806;SDS011;42687;42.524;12.052;2023-04-24T06:47:55;12.60;;;7.15;;
56806;SDS011;42687;42.524;12.052;2023-04-24T06:50:21;14.75;;;7.15;;
56806;SDS011;42687;42.524;12.052;2023-04-24T06:52:47;11.48;;;6.90;;
56806;SDS011;42687;42.524;12.052;2023-04-24T06:55:13;17.15;;;6.60;;
56806;SDS011;42687;42.524;12.052;2023-04-24T06:57:40;10.93;;;6.88;;
56806;SDS011;42687;42.524;12.052;2023-04-24T07:00:06;12.57;;;8.05;;
56806;SDS011;42687;42.524;12.052;2023-04-24T07:02:34;12.75;;;7.53;;
56806;SDS011;42687;42.524;12.052;2023-04-24T07:05:00;12.23;;;7.03;;
56806;SDS011;42687;42.524;12.052;2023-04-24T07:07:26;29.60;;;8.05;;
56806;SDS011;42687;42.524;12.052;2023-04-24T07:09:52;11.40;;;7.68;;
56806;SDS011;42687;42.524;12.052;2023-04-24T07:12:19;14.52;;;9.20;;
56806;SDS011;42687;42.524;12.052;2023-04-24T07:14:47;13.55;;;7.20;;
56806;SDS011;42687;42.524;12.052;2023-04-24T07:17:13;13.18;;;7.60;;
56806;SDS011;42687;42.524;12.052;2023-04-24T07:19:39;14.85;;;8.15;;
56806;SDS011;42687;42.524;12.052;2023-04-24T07:22:05;17.40;;;9.40;;
56806;SDS011;42687;42.524;12.052;2023-04-24T07:24:31;12.35;;;7.80;;
56806;SDS011;42687;42.524;12.052;2023-04-24T07:26:57;22.25;;;7.95;;
56806;SDS011;42687;42.524;12.052;2023-04-24T07:29:24;17.77;;;8.50;;
56806;SDS011;42687;42.524;12.052;2023-04-24T07:31:50;10.65;;;7.57;;
56806;SDS011;42687;42.524;12.052;2023-04-24T07:34:16;17.55;;;9.32;;
56806;SDS011;42687;42.524;12.052;2023-04-24T07:36:41;16.05;;;8.18;;
56806;SDS011;42687;42.524;12.052;2023-04-24T07:39:07;15.38;;;6.28;;
56806;SDS011;42687;42.524;12.052;2023-04-24T07:41:34;11.23;;;6.43;;
56806;SDS011;42687;42.524;12.052;2023-04-24T07:44:02;14.13;;;6.18;;
56806;SDS011;42687;42.524;12.052;2023-04-24T07:46:29;11.30;;;6.40;;
56806;SDS011;42687;42.524;12.052;2023-04-24T07:48:55;12.60;;;7.40;;
56806;SDS011;42687;42.524;12.052;2023-04-24T07:51:21;16.30;;;6.80;;
56806;SDS011;42687;42.524;12.052;2023-04-24T07:53:47;16.17;;;6.63;;
56806;SDS011;42687;42.524;12.052;2023-04-24T07:56:12;31.55;;;7.15;;
56806;SDS011;42687;42.524;12.052;2023-04-24T07:58:38;11.50;;;6.13;;
56806;SDS011;42687;42.524;12.052;2023-04-24T08:01:04;12.10;;;5.35;;
56806;SDS011;42687;42.524;12.052;2023-04-24T08:03:30;11.30;;;4.40;;
56806;SDS011;42687;42.524;12.052;2023-04-24T08:05:55;8.35;;;4.78;;
56806;SDS011;42687;42.524;12.052;2023-04-24T08:08:21;12.15;;;6.88;;
56806;SDS011;42687;42.524;12.052;2023-04-24T08:10:48;9.90;;;5.93;;
56806;SDS011;42687;42.524;12.052;2023-04-24T08:13:14;8.60;;;4.80;;
56806;SDS011;42687;42.524;12.052;2023-04-24T08:15:40;10.35;;;5.28;;
56806;SDS011;42687;42.524;12.052;2023-04-24T08:18:06;10.32;;;5.95;;
56806;SDS011;42687;42.524;12.052;2023-04-24T08:20:32;11.35;;;6.75;;
56806;SDS011;42687;42.524;12.052;2023-04-24T08:22:58;13.38;;;4.78;;
56806;SDS011;42687;42.524;12.052;2023-04-24T08:25:24;10.20;;;4.70;;
56806;SDS011;42687;42.524;12.052;2023-04-24T08:27:50;22.90;;;5.60;;
56806;SDS011;42687;42.524;12.052;2023-04-24T08:30:16;6.38;;;3.17;;
56806;SDS011;42687;42.524;12.052;2023-04-24T08:32:42;8.65;;;4.18;;
56806;SDS011;42687;42.524;12.052;2023-04-24T08:35:08;17.67;;;4.75;;
56806;SDS011;42687;42.524;12.052;2023-04-24T08:37:36;6.50;;;4.05;;
56806;SDS011;42687;42.524;12.052;2023-04-24T08:40:06;4.80;;;2.95;;
56806;SDS011;42687;42.524;12.052;2023-04-24T08:42:39;9.85;;;3.75;;
56806;SDS011;42687;42.524;12.052;2023-04-24T08:45:11;7.82;;;3.25;;
56806;SDS011;42687;42.524;12.052;2023-04-24T08:47:41;12.68;;;4.40;;
56806;SDS011;42687;42.524;12.052;2023-04-24T08:50:07;10.88;;;4.18;;
56806;SDS011;42687;42.524;12.052;2023-04-24T08:52:34;9.25;;;3.70;;
56806;SDS011;42687;42.524;12.052;2023-04-24T08:55:00;6.10;;;3.88;;
56806;SDS011;42687;42.524;12.052;2023-04-24T08:57:28;8.73;;;4.53;;
56806;SDS011;42687;42.524;12.052;2023-04-24T08:59:55;20.98;;;13.80;;
56806;SDS011;42687;42.524;12.052;2023-04-24T09:02:23;6.30;;;3.63;;
56806;SDS011;42687;42.524;12.052;2023-04-24T09:04:49;9.88;;;3.05;;
56806;SDS011;42687;42.524;12.052;2023-04-24T09:07:16;6.07;;;3.75;;
56806;SDS011;42687;42.524;12.052;2023-04-24T09:09:43;5.28;;;3.30;;
56806;SDS011;42687;42.524;12.052;2023-04-24T09:12:09;7.15;;;4.15;;
56806;SDS011;42687;42.524;12.052;2023-04-24T09:14:36;7.30;;;4.32;;
56806;SDS011;42687;42.524;12.052;2023-04-24T09:17:05;10.50;;;4.22;;
56806;SDS011;42687;42.524;12.052;2023-04-24T09:19:31;8.70;;;3.38;;
56806;SDS011;42687;42.524;12.052;2023-04-24T09:21:57;11.45;;;4.95;;
56806;SDS011;42687;42.524;12.052;2023-04-24T09:24:23;14.07;;;5.28;;
56806;SDS011;42687;42.524;12.052;2023-04-24T09:26:55;17.92;;;5.63;;
56806;SDS011;42687;42.524;12.052;2023-04-24T09:29:26;7.07;;;3.78;;
56806;SDS011;42687;42.524;12.052;2023-04-24T09:31:53;17.20;;;5.18;;
56806;SDS011;42687;42.524;12.052;2023-04-24T09:34:22;15.27;;;5.95;;
56806;SDS011;42687;42.524;12.052;2023-04-24T09:36:50;9.43;;;4.97;;
56806;SDS011;42687;42.524;12.052;2023-04-24T09:39:17;12.20;;;8.32;;
56806;SDS011;42687;42.524;12.052;2023-04-24T09:41:45;8.05;;;4.63;;
56806;SDS011;42687;42.524;12.052;2023-04-24T09:44:16;15.93;;;4.40;;
56806;SDS011;42687;42.524;12.052;2023-04-24T09:46:52;10.30;;;4.43;;
56806;SDS011;42687;42.524;12.052;2023-04-24T09:49:28;9.15;;;3.92;;
56806;SDS011;42687;42.524;12.052;2023-04-24T09:52:05;9.88;;;4.63;;
56806;SDS011;42687;42.524;12.052;2023-04-24T09:54:35;8.77;;;4.22;;
56806;SDS011;42687;42.524;12.052;2023-04-24T09:57:04;11.70;;;4.78;;
56806;SDS011;42687;42.524;12.052;2023-04-24T09:59:32;4.75;;;3.45;;
56806;SDS011;42687;42.524;12.052;2023-04-24T10:01:59;10.65;;;5.63;;
56806;SDS011;42687;42.524;12.052;2023-04-24T10:04:25;11.18;;;5.57;;
56806;SDS011;42687;42.524;12.052;2023-04-24T10:06:55;11.93;;;4.30;;
56806;SDS011;42687;42.524;12.052;2023-04-24T10:09:22;13.65;;;5.82;;
56806;SDS011;42687;42.524;12.052;2023-04-24T10:11:51;5.15;;;3.10;;
56806;SDS011;42687;42.524;12.052;2023-04-24T10:14:19;8.25;;;3.70;;
56806;SDS011;42687;42.524;12.052;2023-04-24T10:16:46;5.78;;;3.70;;
56806;SDS011;42687;42.524;12.052;2023-04-24T10:19:13;10.10;;;5.80;;
56806;SDS011;42687;42.524;12.052;2023-04-24T10:21:40;8.23;;;3.75;;
56806;SDS011;42687;42.524;12.052;2023-04-24T10:24:10;12.02;;;3.92;;
56806;SDS011;42687;42.524;12.052;2023-04-24T10:26:41;16.65;;;4.40;;
56806;SDS011;42687;42.524;12.052;2023-04-24T10:29:07;7.43;;;3.25;;
56806;SDS011;42687;42.524;12.052;2023-04-24T10:31:35;9.48;;;4.13;;
56806;SDS011;42687;42.524;12.052;2023-04-24T10:34:02;8.20;;;3.55;;
56806;SDS011;42687;42.524;12.052;2023-04-24T10:36:29;5.38;;;2.63;;
56806;SDS011;42687;42.524;12.052;2023-04-24T10:38:57;14.13;;;4.07;;
56806;SDS011;42687;42.524;12.052;2023-04-24T10:41:26;6.68;;;3.53;;
56806;SDS011;42687;42.524;12.052;2023-04-24T10:44:04;8.25;;;3.72;;
56806;SDS011;42687;42.524;12.052;2023-04-24T10:46:35;8.65;;;3.50;;
56806;SDS011;42687;42.524;12.052;2023-04-24T10:49:05;7.72;;;3.63;;
56806;SDS011;42687;42.524;12.052;2023-04-24T10:54:34;5.90;;;2.72;;
56806;SDS011;42687;42.524;12.052;2023-04-24T10:57:25;6.23;;;4.00;;
56806;SDS011;42687;42.524;12.052;2023-04-24T11:02:47;8.07;;;3.60;;
56806;SDS011;42687;42.524;12.052;2023-04-24T11:05:16;4.93;;;2.97;;
56806;SDS011;42687;42.524;12.052;2023-04-24T11:08:43;9.50;;;2.95;;
56806;SDS011;42687;42.524;12.052;2023-04-24T11:10:47;9.48;;;3.53;;
56806;SDS011;42687;42.524;12.052;2023-04-24T11:13:22;9.82;;;5.10;;
56806;SDS011;42687;42.524;12.052;2023-04-24T11:16:11;11.25;;;4.07;;
56806;SDS011;42687;42.524;12.052;2023-04-24T11:18:38;8.50;;;3.22;;
56806;SDS011;42687;42.524;12.052;2023-04-24T11:23:41;13.75;;;4.75;;
56806;SDS011;42687;42.524;12.052;2023-04-24T11:26:11;14.27;;;4.38;;
56806;SDS011;42687;42.524;12.052;2023-04-24T11:28:43;11.27;;;5.63;;
56806;SDS011;42687;42.524;12.052;2023-04-24T11:31:56;11.77;;;4.15;;
56806;SDS011;42687;42.524;12.052;2023-04-24T11:34:16;11.30;;;4.80;;
56806;SDS011;42687;42.524;12.052;2023-04-24T11:36:43;14.35;;;5.07;;
56806;SDS011;42687;42.524;12.052;2023-04-24T11:39:10;14.38;;;5.75;;
56806;SDS011;42687;42.524;12.052;2023-04-24T11:41:36;8.15;;;3.47;;
56806;SDS011;42687;42.524;12.052;2023-04-24T11:44:03;10.20;;;5.50;;
56806;SDS011;42687;42.524;12.052;2023-04-24T11:46:32;8.23;;;5.18;;
56806;SDS011;42687;42.524;12.052;2023-04-24T11:48:58;11.43;;;5.35;;
56806;SDS011;42687;42.524;12.052;2023-04-24T11:51:26;6.00;;;3.85;;
56806;SDS011;42687;42.524;12.052;2023-04-24T11:53:55;6.95;;;4.22;;
56806;SDS011;42687;42.524;12.052;2023-04-24T11:56:24;7.72;;;3.38;;
56806;SDS011;42687;42.524;12.052;2023-04-24T11:58:53;6.60;;;4.30;;
56806;SDS011;42687;42.524;12.052;2023-04-24T12:01:20;14.80;;;4.15;;
56806;SDS011;42687;42.524;12.052;2023-04-24T12:03:49;6.38;;;3.10;;
56806;SDS011;42687;42.524;12.052;2023-04-24T12:06:18;10.48;;;3.80;;
56806;SDS011;42687;42.524;12.052;2023-04-24T12:08:47;10.93;;;3.75;;
56806;SDS011;42687;42.524;12.052;2023-04-24T12:11:14;11.52;;;4.53;;
56806;SDS011;42687;42.524;12.052;2023-04-24T12:13:43;11.07;;;5.18;;
56806;SDS011;42687;42.524;12.052;2023-04-24T12:16:09;6.93;;;3.83;;
56806;SDS011;42687;42.524;12.052;2023-04-24T12:18:40;10.65;;;3.55;;
56806;SDS011;42687;42.524;12.052;2023-04-24T12:21:14;8.07;;;3.58;;
56806;SDS011;42687;42.524;12.052;2023-04-24T12:23:54;10.32;;;3.13;;
56806;SDS011;42687;42.524;12.052;2023-04-24T12:26:20;7.60;;;3.25;;
56806;SDS011;42687;42.524;12.052;2023-04-24T12:28:48;7.75;;;2.28;;
56806;SDS011;42687;42.524;12.052;2023-04-24T12:31:18;11.20;;;2.65;;
56806;SDS011;42687;42.524;12.052;2023-04-24T12:33:46;5.90;;;2.65;;
56806;SDS011;42687;42.524;12.052;2023-04-24T12:36:12;6.43;;;2.80;;
56806;SDS011;42687;42.524;12.052;2023-04-24T12:38:38;11.48;;;3.45;;
56806;SDS011;42687;42.524;12.052;2023-04-24T12:41:10;5.63;;;2.60;;
56806;SDS011;42687;42.524;12.052;2023-04-24T12:43:38;6.90;;;3.70;;
56806;SDS011;42687;42.524;12.052;2023-04-24T12:46:04;6.90;;;2.92;;
56806;SDS011;42687;42.524;12.052;2023-04-24T12:48:30;6.65;;;2.40;;
56806;SDS011;42687;42.524;12.052;2023-04-24T12:50:57;4.60;;;2.08;;
56806;SDS011;42687;42.524;12.052;2023-04-24T12:53:26;5.18;;;2.00;;
56806;SDS011;42687;42.524;12.052;2023-04-24T12:55:54;2.85;;;1.55;;
56806;SDS011;42687;42.524;12.052;2023-04-24T12:58:20;5.07;;;2.78;;
56806;SDS011;42687;42.524;12.052;2023-04-24T13:00:46;2.55;;;1.70;;
56806;SDS011;42687;42.524;12.052;2023-04-24T13:03:12;4.82;;;1.42;;
56806;SDS011;42687;42.524;12.052;2023-04-24T13:05:39;2.50;;;1.65;;
56806;SDS011;42687;42.524;12.052;2023-04-24T13:08:05;3.00;;;1.58;;
56806;SDS011;42687;42.524;12.052;2023-04-24T13:10:31;2.83;;;2.10;;
56806;SDS011;42687;42.524;12.052;2023-04-24T13:12:56;2.42;;;1.52;;
56806;SDS011;42687;42.524;12.052;2023-04-24T13:15:23;2.97;;;1.55;;
56806;SDS011;42687;42.524;12.052;2023-04-24T13:17:49;5.85;;;1.77;;
56806;SDS011;42687;42.524;12.052;2023-04-24T13:20:15;5.65;;;1.85;;
56806;SDS011;42687;42.524;12.052;2023-04-24T13:22:41;7.93;;;1.92;;
56806;SDS011;42687;42.524;12.052;2023-04-24T13:25:07;2.53;;;1.58;;
56806;SDS011;42687;42.524;12.052;2023-04-24T13:27:34;4.90;;;1.15;;
56806;SDS011;42687;42.524;12.052;2023-04-24T13:29:59;7.18;;;2.28;;
56806;SDS011;42687;42.524;12.052;2023-04-24T13:32:25;1.80;;;1.40;;
56806;SDS011;42687;42.524;12.052;2023-04-24T13:34:51;2.63;;;1.35;;
56806;SDS011;42687;42.524;12.052;2023-04-24T13:37:17;1.92;;;1.33;;
56806;SDS011;42687;42.524;12.052;2023-04-24T13:39:43;2.47;;;1.48;;
56806;SDS011;42687;42.524;12.052;2023-04-24T13:42:09;3.85;;;2.05;;
56806;SDS011;42687;42.524;12.052;2023-04-24T13:44:35;6.10;;;2.13;;
56806;SDS011;42687;42.524;12.052;2023-04-24T13:47:00;6.35;;;1.27;;
56806;SDS011;42687;42.524;12.052;2023-04-24T13:49:26;4.25;;;1.25;;
56806;SDS011;42687;42.524;12.052;2023-04-24T13:51:53;1.60;;;1.20;;
56806;SDS011;42687;42.524;12.052;2023-04-24T13:54:20;3.03;;;1.20;;
56806;SDS011;42687;42.524;12.052;2023-04-24T13:56:47;3.75;;;1.45;;
56806;SDS011;42687;42.524;12.052;2023-04-24T13:59:13;3.78;;;1.30;;
56806;SDS011;42687;42.524;12.052;2023-04-24T14:01:38;1.27;;;0.95;;
56806;SDS011;42687;42.524;12.052;2023-04-24T14:04:04;2.38;;;1.55;;
56806;SDS011;42687;42.524;12.052;2023-04-24T14:06:30;2.78;;;1.35;;
56806;SDS011;42687;42.524;12.052;2023-04-24T14:08:56;1.98;;;1.25;;
56806;SDS011;42687;42.524;12.052;2023-04-24T14:11:22;2.10;;;1.10;;
56806;SDS011;42687;42.524;12.052;2023-04-24T14:13:48;5.03;;;1.02;;
56806;SDS011;42687;42.524;12.052;2023-04-24T14:16:14;1.60;;;1.05;;
56806;SDS011;42687;42.524;12.052;2023-04-24T14:18:40;5.88;;;1.65;;
56806;SDS011;42687;42.524;12.052;2023-04-24T14:21:05;2.72;;;1.50;;
56806;SDS011;42687;42.524;12.052;2023-04-24T14:23:31;6.32;;;2.08;;
56806;SDS011;42687;42.524;12.052;2023-04-24T14:25:57;3.22;;;1.38;;
56806;SDS011;42687;42.524;12.052;2023-04-24T14:28:23;4.97;;;1.02;;
56806;SDS011;42687;42.524;12.052;2023-04-24T14:30:50;5.63;;;2.42;;
56806;SDS011;42687;42.524;12.052;2023-04-24T14:33:16;4.40;;;1.90;;
56806;SDS011;42687;42.524;12.052;2023-04-24T14:35:43;4.13;;;1.77;;